Time;durP1;ratioP1;P1;durP2;ratioP2;P2;SDS_P1;SDS_P2;PMS_P1;PMS_P2;Temp;Humidity;BMP_temperature;BMP_pressure;BME280_temperature;BME280_humidity;BME280_pressure;Samples;Min_cycle;Max_cycle;Signal;HPM_P1;HPM_P2
2021/01/19 00:00:26;;;;;;;4.80;3.50;;;;;;;;;;5012606;28;20616;-70
2021/01/19 00:03:30;;;;;;;5.83;3.80;;;;;;;;;;5029151;28;20599;-69
2021/01/19 00:06:36;;;;;;;6.57;3.30;;;;;;;;;;5032782;28;20892;-70
2021/01/19 00:09:41;;;;;;;6.73;3.40;;;;;;;;;;5023406;28;20630;-70
2021/01/19 00:12:45;;;;;;;5.67;3.47;;;;;;;;;;5035705;28;21165;-69
2021/01/19 00:15:49;;;;;;;5.53;3.30;;;;;;;;;;5035673;28;20603;-70
2021/01/19 00:18:53;;;;;;;8.13;3.30;;;;;;;;;;5004371;28;21189;-69
2021/01/19 00:21:58;;;;;;;5.10;3.20;;;;;;;;;;5023826;28;20911;-70
2021/01/19 00:25:03;;;;;;;4.27;2.90;;;;;;;;;;5035937;28;21145;-69
2021/01/19 00:28:09;;;;;;;4.00;2.93;;;;;;;;;;5035934;28;20591;-70
2021/01/19 00:31:13;;;;;;;4.60;3.07;;;;;;;;;;5035110;28;20631;-70
2021/01/19 00:34:20;;;;;;;4.60;3.20;;;;;;;;;;5035705;28;20599;-69
2021/01/19 00:37:24;;;;;;;5.43;2.70;;;;;;;;;;5023446;28;20627;-70
2021/01/19 00:40:29;;;;;;;4.83;3.10;;;;;;;;;;5035595;28;20623;-69
2021/01/19 00:43:33;;;;;;;3.60;2.50;;;;;;;;;;5035217;28;20591;-70
2021/01/19 00:46:38;;;;;;;5.03;3.00;;;;;;;;;;5035397;28;20548;-70
2021/01/19 00:49:42;;;;;;;6.67;3.10;;;;;;;;;;5023296;28;20638;-70
2021/01/19 00:52:46;;;;;;;5.17;2.87;;;;;;;;;;5029526;28;20579;-69
2021/01/19 00:55:51;;;;;;;6.00;3.23;;;;;;;;;;5022733;28;20582;-70
2021/01/19 00:58:55;;;;;;;4.97;3.20;;;;;;;;;;5023221;28;20627;-69
2021/01/19 01:02:00;;;;;;;5.67;3.13;;;;;;;;;;5034810;28;20611;-69
2021/01/19 01:05:05;;;;;;;4.70;3.50;;;;;;;;;;5034573;28;20619;-69
2021/01/19 01:08:09;;;;;;;5.60;3.07;;;;;;;;;;5015324;28;20533;-69
2021/01/19 01:11:14;;;;;;;4.50;3.33;;;;;;;;;;5033220;28;20654;-70
2021/01/19 01:14:18;;;;;;;4.23;3.20;;;;;;;;;;5034925;28;20587;-69
2021/01/19 01:17:22;;;;;;;4.07;3.23;;;;;;;;;;5034939;28;20547;-70
2021/01/19 01:20:26;;;;;;;6.17;3.20;;;;;;;;;;5011137;28;20622;-69
2021/01/19 01:23:30;;;;;;;4.30;3.20;;;;;;;;;;5018544;28;21133;-69
2021/01/19 01:26:35;;;;;;;5.00;3.07;;;;;;;;;;5022134;28;20592;-70
2021/01/19 01:29:39;;;;;;;7.23;3.13;;;;;;;;;;5034666;28;21192;-69
2021/01/19 01:32:50;;;;;;;4.40;2.80;;;;;;;;;;5021964;28;20619;-70
2021/01/19 01:35:54;;;;;;;5.27;3.17;;;;;;;;;;5034523;28;20646;-69
2021/01/19 01:38:58;;;;;;;5.63;3.10;;;;;;;;;;5014427;28;20624;-70
2021/01/19 01:42:03;;;;;;;5.07;2.80;;;;;;;;;;5023371;28;21199;-70
2021/01/19 01:45:07;;;;;;;6.80;3.10;;;;;;;;;;5034272;28;20610;-70
2021/01/19 01:48:11;;;;;;;7.00;3.20;;;;;;;;;;5021890;28;21161;-70
2021/01/19 01:51:16;;;;;;;6.70;3.40;;;;;;;;;;5034189;28;21181;-70
2021/01/19 01:54:20;;;;;;;5.97;3.30;;;;;;;;;;5022010;28;21145;-70
2021/01/19 01:57:25;;;;;;;4.97;3.20;;;;;;;;;;5034181;28;20539;-70
2021/01/19 02:00:29;;;;;;;4.50;3.17;;;;;;;;;;5033720;28;20627;-71
2021/01/19 02:03:33;;;;;;;4.10;3.10;;;;;;;;;;5034097;28;20544;-70
2021/01/19 02:06:37;;;;;;;6.40;3.40;;;;;;;;;;5033521;28;20928;-69
2021/01/19 02:09:49;;;;;;;5.33;3.43;;;;;;;;;;5033781;28;20654;-70
2021/01/19 02:12:58;;;;;;;4.80;3.77;;;;;;;;;;5033424;28;21181;-69
2021/01/19 02:16:25;;;;;;;7.53;3.50;;;;;;;;;;5020828;28;20620;-69
2021/01/19 02:19:47;;;;;;;5.20;3.70;;;;;;;;;;5033995;28;20623;-70
2021/01/19 02:22:55;;;;;;;6.73;3.50;;;;;;;;;;5033766;28;20857;-69
2021/01/19 02:26:52;;;;;;;5.30;3.47;;;;;;;;;;5033077;28;21153;-70
2021/01/19 02:30:30;;;;;;;6.53;3.37;;;;;;;;;;5033577;28;20619;-70
2021/01/19 02:33:47;;;;;;;5.70;3.43;;;;;;;;;;5032712;28;20604;-70
2021/01/19 02:36:58;;;;;;;5.20;3.57;;;;;;;;;;5032920;28;21200;-70
2021/01/19 02:40:08;;;;;;;6.43;3.57;;;;;;;;;;5032994;28;20623;-70
2021/01/19 02:43:20;;;;;;;5.47;3.80;;;;;;;;;;5013567;28;21075;-70
2021/01/19 02:46:25;;;;;;;6.50;4.03;;;;;;;;;;5021969;28;20572;-69
2021/01/19 02:49:29;;;;;;;8.33;3.67;;;;;;;;;;5032872;28;21229;-69
2021/01/19 02:52:35;;;;;;;6.83;4.10;;;;;;;;;;5032622;28;20587;-69
2021/01/19 02:55:42;;;;;;;7.73;3.90;;;;;;;;;;5032140;28;21078;-70
2021/01/19 02:59:10;;;;;;;7.10;3.73;;;;;;;;;;5032993;28;20611;-69
2021/01/19 03:02:19;;;;;;;8.13;3.87;;;;;;;;;;5032744;28;20574;-69
2021/01/19 03:05:25;;;;;;;5.47;4.00;;;;;;;;;;5020869;28;20544;-70
2021/01/19 03:08:33;;;;;;;7.17;4.07;;;;;;;;;;5012801;28;20544;-70
2021/01/19 03:11:40;;;;;;;4.87;3.73;;;;;;;;;;5012371;28;20612;-70
2021/01/19 03:14:45;;;;;;;7.13;4.27;;;;;;;;;;5020884;28;20591;-69
2021/01/19 03:17:48;;;;;;;6.23;4.10;;;;;;;;;;5032938;28;20583;-70
2021/01/19 03:20:53;;;;;;;7.70;4.23;;;;;;;;;;5033258;28;20595;-69
2021/01/19 03:23:57;;;;;;;8.10;4.40;;;;;;;;;;5013287;28;20545;-70
2021/01/19 03:27:02;;;;;;;6.90;4.30;;;;;;;;;;5026067;28;21153;-69
2021/01/19 03:30:06;;;;;;;5.93;4.07;;;;;;;;;;5032843;28;20651;-69
2021/01/19 03:33:10;;;;;;;7.70;4.70;;;;;;;;;;5032848;28;20596;-70
2021/01/19 03:36:15;;;;;;;7.83;4.77;;;;;;;;;;5020762;28;20549;-70
2021/01/19 03:39:19;;;;;;;7.10;4.70;;;;;;;;;;5031781;28;20643;-70
2021/01/19 03:42:24;;;;;;;8.63;4.73;;;;;;;;;;5032467;28;21149;-70
2021/01/19 03:45:28;;;;;;;6.40;4.30;;;;;;;;;;5026831;22;20687;-71
2021/01/19 03:48:32;;;;;;;5.93;4.63;;;;;;;;;;5016461;28;20584;-71
2021/01/19 03:51:36;;;;;;;7.30;5.17;;;;;;;;;;5016686;28;20605;-70
2021/01/19 03:54:40;;;;;;;6.77;4.53;;;;;;;;;;5016194;28;20533;-70
2021/01/19 03:57:44;;;;;;;8.23;4.87;;;;;;;;;;5016127;28;21177;-70
2021/01/19 04:00:48;;;;;;;7.63;4.80;;;;;;;;;;5015348;28;20596;-71
2021/01/19 04:03:52;;;;;;;8.73;5.50;;;;;;;;;;4996969;28;20541;-70
2021/01/19 04:06:57;;;;;;;7.63;5.00;;;;;;;;;;4995943;28;20549;-71
2021/01/19 04:10:01;;;;;;;8.10;5.33;;;;;;;;;;5007909;28;20655;-70
2021/01/19 04:13:05;;;;;;;10.13;5.30;;;;;;;;;;5015516;28;20584;-71
2021/01/19 04:16:09;;;;;;;7.57;4.93;;;;;;;;;;5016126;28;20588;-70
2021/01/19 04:19:14;;;;;;;7.33;5.33;;;;;;;;;;5015824;28;20647;-71
2021/01/19 04:22:18;;;;;;;6.90;5.23;;;;;;;;;;5015357;28;20584;-71
2021/01/19 04:25:22;;;;;;;8.07;5.50;;;;;;;;;;5015882;28;21153;-70
2021/01/19 04:28:26;;;;;;;9.00;5.43;;;;;;;;;;5015291;28;20596;-71
2021/01/19 04:31:30;;;;;;;10.13;6.13;;;;;;;;;;5015972;28;20596;-71
2021/01/19 04:34:34;;;;;;;9.87;6.43;;;;;;;;;;5015833;28;20596;-70
2021/01/19 04:37:39;;;;;;;9.63;5.90;;;;;;;;;;5015184;28;20880;-70
2021/01/19 04:40:44;;;;;;;9.73;5.80;;;;;;;;;;4996500;28;20537;-70
2021/01/19 04:43:49;;;;;;;11.47;6.77;;;;;;;;;;4995982;28;20589;-71
2021/01/19 04:46:54;;;;;;;10.93;6.53;;;;;;;;;;4996099;28;20549;-70
2021/01/19 04:49:59;;;;;;;13.83;6.53;;;;;;;;;;5009357;28;20710;-70
2021/01/19 04:53:05;;;;;;;9.13;6.20;;;;;;;;;;4996295;28;21128;-71
2021/01/19 04:56:12;;;;;;;10.13;5.83;;;;;;;;;;5005397;28;20593;-71
2021/01/19 04:59:21;;;;;;;8.33;5.23;;;;;;;;;;5014394;28;20976;-71
2021/01/19 05:02:40;;;;;;;8.73;5.60;;;;;;;;;;5015427;28;21146;-71
2021/01/19 05:05:59;;;;;;;10.30;5.70;;;;;;;;;;5014869;28;20549;-71
2021/01/19 05:09:10;;;;;;;11.90;6.10;;;;;;;;;;5015213;28;20648;-71
2021/01/19 05:12:18;;;;;;;11.03;5.47;;;;;;;;;;5015229;28;20600;-71
2021/01/19 05:15:24;;;;;;;7.70;5.57;;;;;;;;;;5014972;28;20597;-71
2021/01/19 05:18:30;;;;;;;9.83;5.90;;;;;;;;;;5014790;28;20616;-71
2021/01/19 05:21:37;;;;;;;9.70;5.50;;;;;;;;;;5015380;28;20541;-71
2021/01/19 05:24:45;;;;;;;7.83;5.83;;;;;;;;;;5014758;28;20952;-71
2021/01/19 05:27:50;;;;;;;9.83;5.50;;;;;;;;;;5015021;28;20537;-71
2021/01/19 05:30:54;;;;;;;6.87;5.37;;;;;;;;;;4995511;28;20550;-71
2021/01/19 05:34:04;;;;;;;8.50;5.63;;;;;;;;;;5013473;28;20636;-71
2021/01/19 05:37:08;;;;;;;7.90;5.37;;;;;;;;;;5014407;28;20589;-73
2021/01/19 05:40:13;;;;;;;10.47;5.77;;;;;;;;;;5014140;28;20648;-73
2021/01/19 05:43:17;;;;;;;10.67;5.40;;;;;;;;;;5014728;28;20618;-73
2021/01/19 05:46:26;;;;;;;10.40;5.00;;;;;;;;;;5013806;28;20628;-73
2021/01/19 05:49:36;;;;;;;7.07;4.93;;;;;;;;;;5014077;28;20661;-73
2021/01/19 05:52:42;;;;;;;9.00;5.27;;;;;;;;;;5014197;28;20604;-73
2021/01/19 05:55:50;;;;;;;7.37;5.27;;;;;;;;;;5013990;28;20538;-73
2021/01/19 05:58:55;;;;;;;11.97;6.27;;;;;;;;;;5012861;28;20652;-73
2021/01/19 06:02:02;;;;;;;10.10;6.00;;;;;;;;;;5014469;28;20549;-73
2021/01/19 06:05:11;;;;;;;9.33;6.20;;;;;;;;;;5013847;28;20592;-73
2021/01/19 06:08:22;;;;;;;9.87;6.13;;;;;;;;;;5012249;28;20600;-73
2021/01/19 06:11:27;;;;;;;10.57;6.57;;;;;;;;;;5013248;28;20561;-73
2021/01/19 06:14:32;;;;;;;12.50;6.63;;;;;;;;;;5013926;28;21169;-73
2021/01/19 06:17:37;;;;;;;11.93;7.17;;;;;;;;;;5012577;28;20633;-73
2021/01/19 06:20:42;;;;;;;9.70;6.60;;;;;;;;;;5011328;28;20624;-73
2021/01/19 06:23:46;;;;;;;14.33;9.23;;;;;;;;;;5011868;28;20537;-73
2021/01/19 06:26:50;;;;;;;11.57;7.47;;;;;;;;;;5014009;28;20596;-73
2021/01/19 06:30:01;;;;;;;11.03;7.37;;;;;;;;;;5012590;28;20652;-73
2021/01/19 06:33:05;;;;;;;10.63;6.87;;;;;;;;;;5011342;28;21045;-73
2021/01/19 06:36:11;;;;;;;11.20;6.77;;;;;;;;;;5013263;28;20564;-73
2021/01/19 06:39:42;;;;;;;11.37;6.67;;;;;;;;;;5013134;28;20647;-73
2021/01/19 06:42:56;;;;;;;11.83;6.87;;;;;;;;;;5013824;28;20536;-73
2021/01/19 06:46:08;;;;;;;11.33;7.27;;;;;;;;;;5013725;28;20627;-73
2021/01/19 06:49:14;;;;;;;11.47;6.83;;;;;;;;;;5013627;28;20637;-73
2021/01/19 06:52:19;;;;;;;11.93;7.90;;;;;;;;;;4993721;28;21084;-73
2021/01/19 06:55:23;;;;;;;9.80;6.57;;;;;;;;;;5012459;28;20596;-73
2021/01/19 06:58:46;;;;;;;14.77;11.27;;;;;;;;;;5013037;28;20624;-72
2021/01/19 07:01:56;;;;;;;11.23;6.77;;;;;;;;;;5012716;28;20607;-72
2021/01/19 07:05:09;;;;;;;10.60;5.80;;;;;;;;;;5013441;28;20941;-72
2021/01/19 07:08:35;;;;;;;10.07;6.17;;;;;;;;;;5013484;28;20537;-72
2021/01/19 07:11:54;;;;;;;9.97;6.23;;;;;;;;;;5001439;28;20917;-72
2021/01/19 07:15:02;;;;;;;7.77;5.37;;;;;;;;;;5012666;28;20534;-72
2021/01/19 07:18:34;;;;;;;8.40;5.77;;;;;;;;;;5012474;28;20609;-72
2021/01/19 07:22:05;;;;;;;7.43;5.43;;;;;;;;;;5015511;28;20548;-72
2021/01/19 07:25:09;;;;;;;10.63;5.33;;;;;;;;;;5017353;28;20549;-72
2021/01/19 07:28:13;;;;;;;9.80;5.37;;;;;;;;;;5017358;28;20561;-72
2021/01/19 07:31:20;;;;;;;9.33;5.80;;;;;;;;;;5016473;28;20592;-72
2021/01/19 07:34:25;;;;;;;9.57;5.23;;;;;;;;;;5017503;28;20597;-72
2021/01/19 07:37:33;;;;;;;8.20;5.50;;;;;;;;;;5016461;28;20596;-72
2021/01/19 07:40:45;;;;;;;8.00;4.80;;;;;;;;;;5016910;28;21209;-72
2021/01/19 07:43:49;;;;;;;8.83;5.13;;;;;;;;;;5017186;28;20537;-72
2021/01/19 07:46:53;;;;;;;9.17;6.20;;;;;;;;;;5017256;28;20556;-72
2021/01/19 07:50:02;;;;;;;10.70;6.43;;;;;;;;;;5016948;28;20619;-72
2021/01/19 07:53:06;;;;;;;13.37;10.43;;;;;;;;;;5015958;28;20629;-72
2021/01/19 07:56:25;;;;;;;12.53;7.67;;;;;;;;;;5017389;28;20555;-72
2021/01/19 07:59:34;;;;;;;10.87;7.43;;;;;;;;;;5015894;28;20619;-72
2021/01/19 08:02:38;;;;;;;10.00;5.37;;;;;;;;;;5016495;28;20599;-72
2021/01/19 08:05:42;;;;;;;9.57;4.90;;;;;;;;;;5017033;28;20558;-72
2021/01/19 08:08:46;;;;;;;10.87;4.63;;;;;;;;;;5016862;28;20627;-72
2021/01/19 08:12:04;;;;;;;14.00;9.30;;;;;;;;;;5016614;28;20556;-72
2021/01/19 08:15:09;;;;;;;12.13;7.83;;;;;;;;;;5004529;28;20529;-72
2021/01/19 08:18:17;;;;;;;7.57;4.90;;;;;;;;;;5016211;28;20599;-72
2021/01/19 08:21:22;;;;;;;7.60;4.87;;;;;;;;;;5015904;28;20544;-72
2021/01/19 08:24:26;;;;;;;6.93;4.60;;;;;;;;;;5016387;28;21118;-72
2021/01/19 08:27:30;;;;;;;7.47;5.13;;;;;;;;;;5016591;28;21059;-72
2021/01/19 08:30:35;;;;;;;6.43;5.10;;;;;;;;;;5015884;28;20623;-72
2021/01/19 08:33:40;;;;;;;7.07;5.17;;;;;;;;;;5015965;28;20588;-72
2021/01/19 08:36:46;;;;;;;9.07;5.50;;;;;;;;;;5016160;28;20553;-72
2021/01/19 08:39:54;;;;;;;7.60;4.97;;;;;;;;;;5015327;28;20620;-72
2021/01/19 08:42:59;;;;;;;8.57;5.20;;;;;;;;;;5016039;28;20888;-72
2021/01/19 08:46:04;;;;;;;7.50;5.33;;;;;;;;;;4996367;28;20605;-72
2021/01/19 08:49:14;;;;;;;14.20;9.90;;;;;;;;;;5005270;28;21222;-72
2021/01/19 08:52:25;;;;;;;18.37;9.23;;;;;;;;;;5013662;28;20648;-72
2021/01/19 08:55:29;;;;;;;8.70;7.80;;;;;;;;;;5015766;28;20596;-72
2021/01/19 08:58:34;;;;;;;8.13;5.23;;;;;;;;;;5014588;28;20631;-72
2021/01/19 09:01:51;;;;;;;7.10;4.47;;;;;;;;;;5014758;28;20585;-72
2021/01/19 09:04:55;;;;;;;7.50;5.40;;;;;;;;;;5015978;28;20543;-72
2021/01/19 09:08:11;;;;;;;6.83;4.70;;;;;;;;;;5015035;28;20592;-72
2021/01/19 09:11:15;;;;;;;6.33;4.10;;;;;;;;;;5015089;28;20588;-71
2021/01/19 09:14:24;;;;;;;5.20;4.10;;;;;;;;;;5014350;28;20620;-72
2021/01/19 09:17:29;;;;;;;7.00;4.33;;;;;;;;;;5014842;28;20620;-72
2021/01/19 09:20:33;;;;;;;9.20;5.13;;;;;;;;;;5015004;28;20637;-72
2021/01/19 09:23:37;;;;;;;18.00;13.77;;;;;;;;;;4994564;28;21146;-72
2021/01/19 09:27:01;;;;;;;10.43;7.63;;;;;;;;;;5004115;28;21186;-72
2021/01/19 09:30:10;;;;;;;6.47;5.40;;;;;;;;;;5012830;28;20640;-72
2021/01/19 09:33:14;;;;;;;17.00;15.17;;;;;;;;;;5013887;28;20940;-72
2021/01/19 09:36:20;;;;;;;6.53;5.10;;;;;;;;;;5015049;28;20541;-72
2021/01/19 09:39:29;;;;;;;8.90;6.33;;;;;;;;;;5013752;28;21241;-72
2021/01/19 09:42:39;;;;;;;7.90;5.80;;;;;;;;;;5014708;28;20541;-72
2021/01/19 09:45:44;;;;;;;7.33;4.50;;;;;;;;;;5013435;28;21185;-72
2021/01/19 09:48:50;;;;;;;7.93;4.37;;;;;;;;;;5062042;22;21036;-83
2021/01/19 09:51:55;;;;;;;8.17;4.70;;;;;;;;;;5011519;28;20587;-83
2021/01/19 09:55:13;;;;;;;6.47;4.33;;;;;;;;;;5011379;28;20639;-83
2021/01/19 09:58:21;;;;;;;9.40;6.37;;;;;;;;;;5029726;28;20650;-83
2021/01/19 10:01:25;;;;;;;15.33;13.47;;;;;;;;;;4992406;28;20560;-83
2021/01/19 10:04:30;;;;;;;8.87;7.13;;;;;;;;;;4981093;28;20900;-83
2021/01/19 10:07:34;;;;;;;8.50;6.17;;;;;;;;;;5014434;28;20632;-83
2021/01/19 10:10:43;;;;;;;9.37;7.50;;;;;;;;;;4991970;28;20540;-83
2021/01/19 10:13:47;;;;;;;8.40;6.37;;;;;;;;;;5014621;28;20628;-83
2021/01/19 10:16:53;;;;;;;11.07;7.43;;;;;;;;;;5010987;28;20587;-83
2021/01/19 10:20:16;;;;;;;10.63;8.27;;;;;;;;;;5049918;28;20591;-83
2021/01/19 10:23:29;;;;;;;7.00;5.33;;;;;;;;;;5025046;28;20591;-83
2021/01/19 10:26:33;;;;;;;6.57;4.67;;;;;;;;;;5004088;28;20195;-83
2021/01/19 10:29:41;;;;;;;6.03;4.57;;;;;;;;;;5030844;28;20180;-83
2021/01/19 10:32:48;;;;;;;10.20;8.33;;;;;;;;;;5019177;28;20516;-84
2021/01/19 10:35:52;;;;;;;10.37;9.03;;;;;;;;;;4992452;28;20617;-83
2021/01/19 10:39:05;;;;;;;9.93;7.33;;;;;;;;;;5003835;28;20223;-83
2021/01/19 10:42:09;;;;;;;14.53;12.40;;;;;;;;;;5019419;28;20179;-83
2021/01/19 10:45:29;;;;;;;7.67;5.50;;;;;;;;;;5019151;28;20176;-84
2021/01/19 10:48:32;;;;;;;9.30;7.07;;;;;;;;;;5018347;28;20223;-83
2021/01/19 10:51:37;;;;;;;7.00;4.60;;;;;;;;;;4991247;28;20181;-83
2021/01/19 10:54:41;;;;;;;6.10;4.40;;;;;;;;;;5011503;28;20691;-83
2021/01/19 10:57:46;;;;;;;6.20;4.53;;;;;;;;;;5010613;28;20208;-83
2021/01/19 11:00:50;;;;;;;6.43;4.90;;;;;;;;;;5022026;28;20192;-83
2021/01/19 11:03:54;;;;;;;5.80;4.70;;;;;;;;;;4999336;28;20173;-83
2021/01/19 11:07:02;;;;;;;6.37;4.20;;;;;;;;;;4999387;28;20200;-83
2021/01/19 11:10:06;;;;;;;5.90;4.57;;;;;;;;;;4999182;28;20189;-84
2021/01/19 11:13:11;;;;;;;8.87;6.40;;;;;;;;;;5001797;28;20192;-83
2021/01/19 11:16:15;;;;;;;7.37;6.30;;;;;;;;;;5041139;28;20181;-83
2021/01/19 11:19:19;;;;;;;9.60;7.67;;;;;;;;;;5029782;28;20219;-84
2021/01/19 11:22:23;;;;;;;7.07;6.13;;;;;;;;;;5014199;28;20193;-84
2021/01/19 11:25:29;;;;;;;6.73;4.30;;;;;;;;;;5020916;28;20184;-84
2021/01/19 11:28:33;;;;;;;5.73;3.80;;;;;;;;;;5010533;28;20216;-84
2021/01/19 11:31:38;;;;;;;6.83;4.43;;;;;;;;;;5023090;28;20188;-84
2021/01/19 11:34:42;;;;;;;7.03;5.23;;;;;;;;;;5008404;28;20215;-84
2021/01/19 11:37:47;;;;;;;5.23;3.70;;;;;;;;;;5025760;28;20221;-84
2021/01/19 11:40:51;;;;;;;6.70;3.80;;;;;;;;;;5020912;28;20181;-84
2021/01/19 11:43:55;;;;;;;6.67;3.63;;;;;;;;;;5027807;28;20183;-84
2021/01/19 11:47:00;;;;;;;6.00;3.83;;;;;;;;;;5015176;28;20188;-84
2021/01/19 11:50:05;;;;;;;4.87;3.90;;;;;;;;;;5012838;28;20636;-83
2021/01/19 11:53:09;;;;;;;6.20;3.53;;;;;;;;;;4999270;28;20561;-84
2021/01/19 11:56:14;;;;;;;6.40;3.90;;;;;;;;;;4999610;28;20228;-86
2021/01/19 11:59:19;;;;;;;5.13;3.37;;;;;;;;;;5017964;28;20216;-84
2021/01/19 12:02:23;;;;;;;3.83;3.20;;;;;;;;;;5013171;28;20192;-84
2021/01/19 12:05:27;;;;;;;4.83;3.60;;;;;;;;;;5020458;28;20176;-84
2021/01/19 12:08:31;;;;;;;5.07;3.30;;;;;;;;;;5016852;28;20212;-85
2021/01/19 12:11:44;;;;;;;4.80;3.43;;;;;;;;;;5000814;28;20185;-84
2021/01/19 12:14:48;;;;;;;4.63;3.63;;;;;;;;;;5012679;28;20548;-84
2021/01/19 12:17:52;;;;;;;4.10;3.10;;;;;;;;;;5024131;28;20220;-84
2021/01/19 12:20:56;;;;;;;4.57;3.20;;;;;;;;;;5012790;28;20176;-84
2021/01/19 12:24:00;;;;;;;4.27;3.37;;;;;;;;;;5001726;28;20181;-84
2021/01/19 12:27:04;;;;;;;3.73;3.10;;;;;;;;;;5013004;28;20176;-84
2021/01/19 12:30:09;;;;;;;3.43;2.80;;;;;;;;;;5024402;28;20536;-84
2021/01/19 12:33:13;;;;;;;4.17;3.30;;;;;;;;;;5012831;28;20184;-84
2021/01/19 12:36:21;;;;;;;3.40;2.40;;;;;;;;;;5012988;28;20208;-85
2021/01/19 12:39:25;;;;;;;4.13;3.00;;;;;;;;;;5001261;28;20212;-84
2021/01/19 12:42:29;;;;;;;3.40;2.70;;;;;;;;;;5012790;28;20177;-84
2021/01/19 12:45:33;;;;;;;4.43;2.90;;;;;;;;;;5012688;28;20181;-84
2021/01/19 12:48:37;;;;;;;4.37;2.43;;;;;;;;;;5001087;28;20224;-84
2021/01/19 12:51:42;;;;;;;8.60;5.37;;;;;;;;;;5012624;28;20181;-85
2021/01/19 12:54:46;;;;;;;5.07;3.90;;;;;;;;;;5001505;28;20206;-85
2021/01/19 12:57:50;;;;;;;6.67;3.17;;;;;;;;;;5012567;28;20216;-85
2021/01/19 13:00:55;;;;;;;3.93;3.10;;;;;;;;;;5001102;28;20517;-85
2021/01/19 13:03:59;;;;;;;8.83;6.70;;;;;;;;;;5023617;28;20189;-85
2021/01/19 13:07:03;;;;;;;4.20;3.20;;;;;;;;;;5001321;28;20177;-85
2021/01/19 13:10:08;;;;;;;7.37;3.83;;;;;;;;;;5023354;28;20181;-85
2021/01/19 13:13:12;;;;;;;8.13;5.57;;;;;;;;;;5022502;28;20201;-85
2021/01/19 13:16:16;;;;;;;8.70;4.83;;;;;;;;;;5011845;28;20564;-85
2021/01/19 13:19:20;;;;;;;8.43;4.90;;;;;;;;;;5012434;28;20216;-85
2021/01/19 13:22:25;;;;;;;7.77;4.77;;;;;;;;;;5003704;28;20193;-86
2021/01/19 13:25:29;;;;;;;3.87;2.53;;;;;;;;;;4981146;28;20174;-85
2021/01/19 13:28:33;;;;;;;3.97;2.77;;;;;;;;;;4981131;28;20986;-85
2021/01/19 13:31:38;;;;;;;6.60;3.57;;;;;;;;;;4981226;28;20541;-85
2021/01/19 13:34:41;;;;;;;6.07;3.57;;;;;;;;;;5000392;28;20600;-85
2021/01/19 13:37:46;;;;;;;6.87;3.50;;;;;;;;;;5011438;28;20627;-85
2021/01/19 13:40:50;;;;;;;241.60;117.83;;;;;;;;;;5000143;28;20552;-85
2021/01/19 13:43:54;;;;;;;86.77;52.00;;;;;;;;;;5037324;28;20598;-86
2021/01/19 13:46:58;;;;;;;6.77;5.17;;;;;;;;;;5042175;28;20594;-86
2021/01/19 13:50:03;;;;;;;4.00;2.57;;;;;;;;;;5017892;28;20587;-84
2021/01/19 13:53:08;;;;;;;2.60;2.10;;;;;;;;;;5013845;28;20557;-84
2021/01/19 13:56:12;;;;;;;5.23;4.80;;;;;;;;;;4991267;28;20612;-85
2021/01/19 13:59:16;;;;;;;6.80;5.43;;;;;;;;;;4991535;28;20628;-85
2021/01/19 14:02:20;;;;;;;3.63;2.73;;;;;;;;;;5017330;28;20614;-84
2021/01/19 14:05:24;;;;;;;2.83;2.40;;;;;;;;;;5030859;28;20953;-85
2021/01/19 14:08:29;;;;;;;4.27;2.40;;;;;;;;;;5028498;28;21236;-84
2021/01/19 14:11:33;;;;;;;4.97;3.00;;;;;;;;;;5011329;28;20587;-84
2021/01/19 14:14:37;;;;;;;4.00;3.60;;;;;;;;;;4991553;28;20537;-85
2021/01/19 14:17:41;;;;;;;7.37;5.10;;;;;;;;;;4991683;28;20624;-85
2021/01/19 14:20:46;;;;;;;7.87;6.17;;;;;;;;;;5003654;28;21204;-86
2021/01/19 14:23:51;;;;;;;3.70;3.40;;;;;;;;;;4992968;28;20549;-84
2021/01/19 14:26:56;;;;;;;4.27;2.40;;;;;;;;;;5005309;28;20553;-84
2021/01/19 14:30:00;;;;;;;4.13;2.27;;;;;;;;;;5004618;28;20632;-84
2021/01/19 14:33:05;;;;;;;5.20;3.43;;;;;;;;;;5004765;28;20556;-85
2021/01/19 14:36:09;;;;;;;2.97;2.03;;;;;;;;;;5003881;28;20601;-86
2021/01/19 14:39:14;;;;;;;3.40;2.13;;;;;;;;;;5004186;28;20619;-85
2021/01/19 14:42:19;;;;;;;27.47;9.30;;;;;;;;;;5003509;28;20545;-84
2021/01/19 14:45:23;;;;;;;20.67;7.13;;;;;;;;;;5002597;28;20591;-84
2021/01/19 14:48:27;;;;;;;33.23;10.40;;;;;;;;;;5010422;28;20670;-84
2021/01/19 14:51:31;;;;;;;21.63;12.17;;;;;;;;;;5021274;28;20564;-85
2021/01/19 14:54:36;;;;;;;57.30;19.83;;;;;;;;;;5037902;28;20621;-84
2021/01/19 14:57:45;;;;;;;317.13;116.73;;;;;;;;;;5019408;28;20954;-84
2021/01/19 15:00:49;;;;;;;103.70;39.93;;;;;;;;;;5042100;28;20601;-84
2021/01/19 15:03:53;;;;;;;36.97;21.90;;;;;;;;;;4999385;28;20599;-84
2021/01/19 15:06:59;;;;;;;17.90;10.70;;;;;;;;;;4990926;28;20600;-84
2021/01/19 15:10:04;;;;;;;38.13;18.53;;;;;;;;;;4979855;28;20536;-84
2021/01/19 15:13:08;;;;;;;13.63;7.57;;;;;;;;;;5001727;28;21169;-84
2021/01/19 15:16:13;;;;;;;10.97;8.40;;;;;;;;;;5001801;28;20596;-84
2021/01/19 15:19:18;;;;;;;9.00;4.70;;;;;;;;;;4990410;28;20616;-84
2021/01/19 15:22:23;;;;;;;6.07;4.50;;;;;;;;;;5014800;28;20595;-84
2021/01/19 15:25:27;;;;;;;7.90;3.87;;;;;;;;;;5019110;28;20563;-84
2021/01/19 15:28:31;;;;;;;12.03;7.87;;;;;;;;;;5029712;28;20621;-83
2021/01/19 15:31:42;;;;;;;4.77;3.70;;;;;;;;;;5005771;28;20627;-83
2021/01/19 15:34:48;;;;;;;4.07;2.57;;;;;;;;;;4990874;28;20549;-82
2021/01/19 15:37:53;;;;;;;3.80;2.77;;;;;;;;;;4990665;28;20620;-83
2021/01/19 15:40:57;;;;;;;10.20;7.10;;;;;;;;;;4998594;28;20588;-83
2021/01/19 15:44:01;;;;;;;15.40;8.73;;;;;;;;;;5014300;28;20552;-84
2021/01/19 15:47:06;;;;;;;12.03;7.30;;;;;;;;;;5003015;28;20686;-84
2021/01/19 15:50:11;;;;;;;5.53;3.20;;;;;;;;;;5013886;28;20599;-84
2021/01/19 15:53:16;;;;;;;11.33;6.17;;;;;;;;;;5031232;28;21152;-83
2021/01/19 15:56:32;;;;;;;8.40;5.73;;;;;;;;;;5005177;28;21155;-82
2021/01/19 15:59:36;;;;;;;4.77;3.77;;;;;;;;;;5016612;28;20545;-83
2021/01/19 16:02:40;;;;;;;6.77;3.67;;;;;;;;;;5005063;28;20560;-83
2021/01/19 16:05:44;;;;;;;5.07;2.67;;;;;;;;;;5006979;28;20540;-82
2021/01/19 16:08:48;;;;;;;7.07;4.97;;;;;;;;;;5031530;28;21180;-82
2021/01/19 16:11:53;;;;;;;13.70;7.63;;;;;;;;;;5024667;28;20555;-83
2021/01/19 16:14:57;;;;;;;9.47;5.60;;;;;;;;;;5002439;28;20891;-83
2021/01/19 16:18:01;;;;;;;4.67;3.87;;;;;;;;;;5014984;28;20604;-83
2021/01/19 16:21:09;;;;;;;4.90;4.30;;;;;;;;;;5013512;28;20545;-83
2021/01/19 16:24:13;;;;;;;9.90;5.63;;;;;;;;;;5013543;28;20537;-84
2021/01/19 16:27:17;;;;;;;4.63;3.33;;;;;;;;;;5006229;28;20618;-83
2021/01/19 16:30:22;;;;;;;3.43;2.50;;;;;;;;;;5026097;28;20615;-83
2021/01/19 16:33:26;;;;;;;3.77;3.00;;;;;;;;;;5033598;28;20594;-82
2021/01/19 16:36:32;;;;;;;6.17;4.63;;;;;;;;;;5016723;28;20614;-83
2021/01/19 16:39:36;;;;;;;6.20;3.10;;;;;;;;;;5034611;28;20606;-83
2021/01/19 16:42:40;;;;;;;5.07;4.13;;;;;;;;;;5044376;28;21137;-83
2021/01/19 16:45:44;;;;;;;5.50;4.47;;;;;;;;;;5032571;28;20586;-83
2021/01/19 16:48:52;;;;;;;8.37;6.37;;;;;;;;;;5032107;28;20641;-83
2021/01/19 16:51:56;;;;;;;6.30;4.33;;;;;;;;;;5032320;28;20555;-82
2021/01/19 16:55:01;;;;;;;6.80;4.40;;;;;;;;;;5025520;28;20595;-83
2021/01/19 16:58:05;;;;;;;7.40;3.63;;;;;;;;;;5002294;28;20615;-83
2021/01/19 17:01:13;;;;;;;4.43;3.23;;;;;;;;;;5013832;28;20588;-84
2021/01/19 17:04:18;;;;;;;9.10;7.57;;;;;;;;;;5002393;28;20596;-83
2021/01/19 17:07:22;;;;;;;66.40;36.80;;;;;;;;;;5009935;28;20638;-84
2021/01/19 17:10:26;;;;;;;22.47;14.60;;;;;;;;;;5033623;28;20559;-84
2021/01/19 17:13:32;;;;;;;27.77;19.50;;;;;;;;;;5013624;28;20582;-84
2021/01/19 17:16:38;;;;;;;32.00;18.57;;;;;;;;;;5057080;28;20590;-83
2021/01/19 17:19:44;;;;;;;7.27;5.40;;;;;;;;;;5004777;28;20600;-84
2021/01/19 17:22:49;;;;;;;9.43;7.07;;;;;;;;;;5005759;28;20549;-84
2021/01/19 17:25:55;;;;;;;6.73;4.33;;;;;;;;;;5016924;28;20560;-84
2021/01/19 17:28:59;;;;;;;15.97;7.57;;;;;;;;;;5015969;28;20616;-83
2021/01/19 17:32:06;;;;;;;9.03;6.60;;;;;;;;;;5017886;28;20549;-83
2021/01/19 17:35:10;;;;;;;12.40;8.30;;;;;;;;;;5023462;28;20546;-83
2021/01/19 17:38:15;;;;;;;8.20;4.70;;;;;;;;;;5034895;28;20618;-84
2021/01/19 17:41:45;;;;;;;8.00;3.50;;;;;;;;;;5034721;28;20547;-84
2021/01/19 17:44:49;;;;;;;7.27;4.70;;;;;;;;;;5033890;28;20559;-84
2021/01/19 17:47:54;;;;;;;6.07;3.30;;;;;;;;;;5034726;28;20638;-84
2021/01/19 17:50:57;;;;;;;14.80;7.43;;;;;;;;;;5021719;28;20626;-84
2021/01/19 17:54:02;;;;;;;12.17;7.30;;;;;;;;;;5014597;28;20544;-84
2021/01/19 17:57:06;;;;;;;8.13;5.80;;;;;;;;;;5013496;28;21157;-84
2021/01/19 18:00:13;;;;;;;17.73;9.27;;;;;;;;;;5014622;28;20598;-83
2021/01/19 18:03:18;;;;;;;13.30;9.27;;;;;;;;;;5018877;28;20590;-84
2021/01/19 18:06:36;;;;;;;18.80;14.47;;;;;;;;;;5003401;28;20588;-84
2021/01/19 18:09:40;;;;;;;6.63;2.77;;;;;;;;;;4993914;28;21096;-84
2021/01/19 18:12:44;;;;;;;3.20;2.90;;;;;;;;;;4993709;28;20545;-84
2021/01/19 18:15:49;;;;;;;3.33;2.50;;;;;;;;;;5016697;28;20549;-84
2021/01/19 18:18:57;;;;;;;5.30;3.57;;;;;;;;;;5016610;28;20616;-84
2021/01/19 18:22:01;;;;;;;4.37;3.97;;;;;;;;;;5014770;28;20614;-84
2021/01/19 18:25:09;;;;;;;3.27;2.40;;;;;;;;;;5033301;28;20558;-84
2021/01/19 18:28:14;;;;;;;2.50;2.20;;;;;;;;;;5044415;28;20622;-84
2021/01/19 18:31:18;;;;;;;2.57;1.97;;;;;;;;;;5013537;28;20619;-84